sensor_id;sensor_type;location;lat;lon;timestamp;temperature;humidity
758;DHT22;363;48.764;9.172;2023-03-15T00:00:46;4.40;99.90
758;DHT22;363;48.764;9.172;2023-03-15T00:03:13;4.40;99.90
758;DHT22;363;48.764;9.172;2023-03-15T00:05:43;4.40;99.90
758;DHT22;363;48.764;9.172;2023-03-15T00:08:09;4.60;99.90
758;DHT22;363;48.764;9.172;2023-03-15T00:10:42;4.60;99.90
758;DHT22;363;48.764;9.172;2023-03-15T00:13:09;4.60;99.90
758;DHT22;363;48.764;9.172;2023-03-15T00:15:35;4.40;99.90
758;DHT22;363;48.764;9.172;2023-03-15T00:18:01;3.80;99.90
758;DHT22;363;48.764;9.172;2023-03-15T00:20:28;3.80;99.90
758;DHT22;363;48.764;9.172;2023-03-15T00:22:54;4.40;99.90
758;DHT22;363;48.764;9.172;2023-03-15T00:25:20;4.30;99.90
758;DHT22;363;48.764;9.172;2023-03-15T00:27:45;4.30;99.90
758;DHT22;363;48.764;9.172;2023-03-15T00:30:11;4.90;99.90
758;DHT22;363;48.764;9.172;2023-03-15T00:32:37;4.20;99.90
758;DHT22;363;48.764;9.172;2023-03-15T00:35:02;4.30;99.90
758;DHT22;363;48.764;9.172;2023-03-15T00:37:29;4.40;99.90
758;DHT22;363;48.764;9.172;2023-03-15T00:39:55;3.90;99.90
758;DHT22;363;48.764;9.172;2023-03-15T00:42:21;4.50;99.90
758;DHT22;363;48.764;9.172;2023-03-15T00:44:52;4.30;99.90
758;DHT22;363;48.764;9.172;2023-03-15T00:47:19;4.40;99.90
758;DHT22;363;48.764;9.172;2023-03-15T00:49:44;4.50;99.90
758;DHT22;363;48.764;9.172;2023-03-15T00:52:10;4.30;99.90
758;DHT22;363;48.764;9.172;2023-03-15T00:54:37;4.50;99.90
758;DHT22;363;48.764;9.172;2023-03-15T00:57:03;4.40;99.90
758;DHT22;363;48.764;9.172;2023-03-15T00:59:29;4.30;99.90
758;DHT22;363;48.764;9.172;2023-03-15T01:02:00;4.00;99.90
758;DHT22;363;48.764;9.172;2023-03-15T01:04:26;4.50;99.90
758;DHT22;363;48.764;9.172;2023-03-15T01:06:52;4.60;99.90
758;DHT22;363;48.764;9.172;2023-03-15T01:09:17;4.60;99.90
758;DHT22;363;48.764;9.172;2023-03-15T01:11:43;4.50;99.90
758;DHT22;363;48.764;9.172;2023-03-15T01:14:09;3.80;99.90
758;DHT22;363;48.764;9.172;2023-03-15T01:16:34;4.10;99.90
758;DHT22;363;48.764;9.172;2023-03-15T01:19:00;4.60;99.90
758;DHT22;363;48.764;9.172;2023-03-15T01:21:26;4.50;99.90
758;DHT22;363;48.764;9.172;2023-03-15T01:23:52;4.60;99.90
758;DHT22;363;48.764;9.172;2023-03-15T01:26:18;4.70;99.90
758;DHT22;363;48.764;9.172;2023-03-15T01:28:44;4.60;99.90
758;DHT22;363;48.764;9.172;2023-03-15T01:31:21;4.30;99.90
758;DHT22;363;48.764;9.172;2023-03-15T01:33:48;4.30;99.90
758;DHT22;363;48.764;9.172;2023-03-15T01:36:14;4.60;99.90
758;DHT22;363;48.764;9.172;2023-03-15T01:38:39;4.10;99.90
758;DHT22;363;48.764;9.172;2023-03-15T01:41:05;3.60;99.90
758;DHT22;363;48.764;9.172;2023-03-15T01:43:31;3.80;99.90
758;DHT22;363;48.764;9.172;2023-03-15T01:46:18;4.20;99.90
758;DHT22;363;48.764;9.172;2023-03-15T01:54:15;4.00;99.90
758;DHT22;363;48.764;9.172;2023-03-15T01:56:48;3.70;99.90
758;DHT22;363;48.764;9.172;2023-03-15T01:59:24;3.70;99.90
758;DHT22;363;48.764;9.172;2023-03-15T02:01:52;4.00;99.90
758;DHT22;363;48.764;9.172;2023-03-15T02:04:24;3.80;99.90
758;DHT22;363;48.764;9.172;2023-03-15T02:06:53;3.50;99.90
758;DHT22;363;48.764;9.172;2023-03-15T02:09:45;3.70;99.90
758;DHT22;363;48.764;9.172;2023-03-15T02:12:14;3.80;99.90
758;DHT22;363;48.764;9.172;2023-03-15T02:14:39;3.80;99.90
758;DHT22;363;48.764;9.172;2023-03-15T02:17:06;3.70;99.90
758;DHT22;363;48.764;9.172;2023-03-15T02:27:50;3.60;99.90
758;DHT22;363;48.764;9.172;2023-03-15T02:30:16;2.90;99.90
758;DHT22;363;48.764;9.172;2023-03-15T02:32:42;3.60;99.90
758;DHT22;363;48.764;9.172;2023-03-15T02:35:08;3.40;99.90
758;DHT22;363;48.764;9.172;2023-03-15T02:37:34;3.60;99.90
758;DHT22;363;48.764;9.172;2023-03-15T02:39:59;3.50;99.90
758;DHT22;363;48.764;9.172;2023-03-15T02:42:25;3.30;99.90
758;DHT22;363;48.764;9.172;2023-03-15T02:44:52;3.30;99.90
758;DHT22;363;48.764;9.172;2023-03-15T02:47:25;3.40;99.90
758;DHT22;363;48.764;9.172;2023-03-15T02:49:52;2.80;99.90
758;DHT22;363;48.764;9.172;2023-03-15T02:52:19;3.20;99.90
758;DHT22;363;48.764;9.172;2023-03-15T02:54:45;3.30;99.90
758;DHT22;363;48.764;9.172;2023-03-15T02:57:15;2.90;99.90
758;DHT22;363;48.764;9.172;2023-03-15T02:59:41;3.80;99.90
758;DHT22;363;48.764;9.172;2023-03-15T03:02:08;3.30;99.90
758;DHT22;363;48.764;9.172;2023-03-15T03:04:36;3.30;99.90
758;DHT22;363;48.764;9.172;2023-03-15T03:07:02;3.10;99.90
758;DHT22;363;48.764;9.172;2023-03-15T03:09:27;3.10;99.90
758;DHT22;363;48.764;9.172;2023-03-15T03:11:53;3.20;99.90
758;DHT22;363;48.764;9.172;2023-03-15T03:14:19;2.40;99.90
758;DHT22;363;48.764;9.172;2023-03-15T03:16:48;3.00;99.90
758;DHT22;363;48.764;9.172;2023-03-15T03:19:14;3.20;99.90
758;DHT22;363;48.764;9.172;2023-03-15T03:21:39;3.20;99.90
758;DHT22;363;48.764;9.172;2023-03-15T03:24:08;3.50;99.90
758;DHT22;363;48.764;9.172;2023-03-15T03:26:33;3.40;99.90
758;DHT22;363;48.764;9.172;2023-03-15T03:28:59;2.90;99.90
758;DHT22;363;48.764;9.172;2023-03-15T03:31:26;2.50;99.90
758;DHT22;363;48.764;9.172;2023-03-15T03:33:54;3.50;99.90
758;DHT22;363;48.764;9.172;2023-03-15T03:36:19;3.20;99.90
758;DHT22;363;48.764;9.172;2023-03-15T03:38:46;3.10;99.90
758;DHT22;363;48.764;9.172;2023-03-15T03:41:13;2.90;99.90
758;DHT22;363;48.764;9.172;2023-03-15T03:43:39;2.70;99.90
758;DHT22;363;48.764;9.172;2023-03-15T03:46:05;2.90;99.90
758;DHT22;363;48.764;9.172;2023-03-15T03:48:31;2.90;99.90
758;DHT22;363;48.764;9.172;2023-03-15T03:50:58;2.60;99.90
758;DHT22;363;48.764;9.172;2023-03-15T03:53:23;2.90;99.90
758;DHT22;363;48.764;9.172;2023-03-15T03:55:50;2.50;99.90
758;DHT22;363;48.764;9.172;2023-03-15T03:58:15;2.60;99.90
758;DHT22;363;48.764;9.172;2023-03-15T04:00:41;2.60;99.90
758;DHT22;363;48.764;9.172;2023-03-15T04:03:07;2.60;99.90
758;DHT22;363;48.764;9.172;2023-03-15T04:05:33;2.70;99.90
758;DHT22;363;48.764;9.172;2023-03-15T04:07:59;2.70;99.90
758;DHT22;363;48.764;9.172;2023-03-15T04:10:25;2.50;99.90
758;DHT22;363;48.764;9.172;2023-03-15T04:12:55;2.60;99.90
758;DHT22;363;48.764;9.172;2023-03-15T04:15:21;2.60;99.90
758;DHT22;363;48.764;9.172;2023-03-15T04:17:51;2.70;99.90
758;DHT22;363;48.764;9.172;2023-03-15T04:20:24;2.10;99.90
758;DHT22;363;48.764;9.172;2023-03-15T04:22:51;2.80;99.90
758;DHT22;363;48.764;9.172;2023-03-15T04:25:18;2.20;99.90
758;DHT22;363;48.764;9.172;2023-03-15T04:27:44;2.80;99.90
758;DHT22;363;48.764;9.172;2023-03-15T04:30:10;2.60;99.90
758;DHT22;363;48.764;9.172;2023-03-15T04:32:36;2.70;99.90
758;DHT22;363;48.764;9.172;2023-03-15T04:35:03;2.60;99.90
758;DHT22;363;48.764;9.172;2023-03-15T04:37:29;2.60;99.90
758;DHT22;363;48.764;9.172;2023-03-15T04:39:56;2.50;99.90
758;DHT22;363;48.764;9.172;2023-03-15T04:42:22;2.60;99.90
758;DHT22;363;48.764;9.172;2023-03-15T04:44:50;2.60;99.90
758;DHT22;363;48.764;9.172;2023-03-15T04:47:16;2.40;99.90
758;DHT22;363;48.764;9.172;2023-03-15T04:49:42;1.90;99.90
758;DHT22;363;48.764;9.172;2023-03-15T04:52:07;2.50;99.90
758;DHT22;363;48.764;9.172;2023-03-15T04:54:33;2.30;99.90
758;DHT22;363;48.764;9.172;2023-03-15T04:56:59;2.10;99.90
758;DHT22;363;48.764;9.172;2023-03-15T04:59:24;2.40;99.90
758;DHT22;363;48.764;9.172;2023-03-15T05:01:50;2.30;99.90
758;DHT22;363;48.764;9.172;2023-03-15T05:04:15;2.30;99.90
758;DHT22;363;48.764;9.172;2023-03-15T05:06:41;2.30;99.90
758;DHT22;363;48.764;9.172;2023-03-15T05:09:07;2.20;99.90
758;DHT22;363;48.764;9.172;2023-03-15T05:11:32;2.50;99.90
758;DHT22;363;48.764;9.172;2023-03-15T05:13:58;2.80;99.90
758;DHT22;363;48.764;9.172;2023-03-15T05:16:24;2.40;99.90
758;DHT22;363;48.764;9.172;2023-03-15T05:18:50;2.50;99.90
758;DHT22;363;48.764;9.172;2023-03-15T05:21:15;2.40;99.90
758;DHT22;363;48.764;9.172;2023-03-15T05:23:41;2.30;99.90
758;DHT22;363;48.764;9.172;2023-03-15T05:26:06;2.40;99.90
758;DHT22;363;48.764;9.172;2023-03-15T05:28:32;2.60;99.90
758;DHT22;363;48.764;9.172;2023-03-15T05:30:58;2.90;99.90
758;DHT22;363;48.764;9.172;2023-03-15T05:33:24;2.30;99.90
758;DHT22;363;48.764;9.172;2023-03-15T05:35:50;2.90;99.90
758;DHT22;363;48.764;9.172;2023-03-15T05:38:18;2.50;99.90
758;DHT22;363;48.764;9.172;2023-03-15T05:40:44;1.70;99.90
758;DHT22;363;48.764;9.172;2023-03-15T05:43:10;2.30;99.90
758;DHT22;363;48.764;9.172;2023-03-15T05:45:37;2.40;99.90
758;DHT22;363;48.764;9.172;2023-03-15T05:48:03;2.40;99.90
758;DHT22;363;48.764;9.172;2023-03-15T05:50:29;2.40;99.90
758;DHT22;363;48.764;9.172;2023-03-15T05:52:56;2.30;99.90
758;DHT22;363;48.764;9.172;2023-03-15T05:55:22;2.00;99.90
758;DHT22;363;48.764;9.172;2023-03-15T05:57:48;2.30;99.90
758;DHT22;363;48.764;9.172;2023-03-15T06:00:14;1.80;99.90
758;DHT22;363;48.764;9.172;2023-03-15T06:02:42;2.40;99.90
758;DHT22;363;48.764;9.172;2023-03-15T06:05:08;2.30;99.90
758;DHT22;363;48.764;9.172;2023-03-15T06:07:33;2.40;99.90
758;DHT22;363;48.764;9.172;2023-03-15T06:09:59;1.70;99.90
758;DHT22;363;48.764;9.172;2023-03-15T06:12:25;2.40;99.90
758;DHT22;363;48.764;9.172;2023-03-15T06:14:51;2.40;99.90
758;DHT22;363;48.764;9.172;2023-03-15T06:17:16;2.50;99.90
758;DHT22;363;48.764;9.172;2023-03-15T06:19:42;2.40;99.90
758;DHT22;363;48.764;9.172;2023-03-15T06:22:08;2.40;99.90
758;DHT22;363;48.764;9.172;2023-03-15T06:24:33;2.20;99.90
758;DHT22;363;48.764;9.172;2023-03-15T06:26:59;2.40;99.90
758;DHT22;363;48.764;9.172;2023-03-15T06:29:25;1.80;99.90
758;DHT22;363;48.764;9.172;2023-03-15T06:31:50;2.30;99.90
758;DHT22;363;48.764;9.172;2023-03-15T06:34:17;3.00;99.90
758;DHT22;363;48.764;9.172;2023-03-15T06:36:44;2.70;99.90
758;DHT22;363;48.764;9.172;2023-03-15T06:39:11;3.00;99.90
758;DHT22;363;48.764;9.172;2023-03-15T06:41:39;3.30;99.90
758;DHT22;363;48.764;9.172;2023-03-15T06:44:08;2.90;99.90
758;DHT22;363;48.764;9.172;2023-03-15T06:46:34;3.20;99.90
758;DHT22;363;48.764;9.172;2023-03-15T06:48:59;3.30;99.90
758;DHT22;363;48.764;9.172;2023-03-15T06:51:25;3.40;99.90
758;DHT22;363;48.764;9.172;2023-03-15T06:53:51;3.50;99.90
758;DHT22;363;48.764;9.172;2023-03-15T06:56:17;3.60;99.90
758;DHT22;363;48.764;9.172;2023-03-15T06:58:42;3.50;99.90
758;DHT22;363;48.764;9.172;2023-03-15T07:01:11;4.00;99.90
758;DHT22;363;48.764;9.172;2023-03-15T07:03:37;3.50;99.90
758;DHT22;363;48.764;9.172;2023-03-15T07:06:03;3.60;99.90
758;DHT22;363;48.764;9.172;2023-03-15T07:08:29;3.60;99.90
758;DHT22;363;48.764;9.172;2023-03-15T07:10:55;3.90;99.90
758;DHT22;363;48.764;9.172;2023-03-15T07:13:20;3.30;99.90
758;DHT22;363;48.764;9.172;2023-03-15T07:15:54;4.30;99.90
758;DHT22;363;48.764;9.172;2023-03-15T07:18:21;4.30;99.90
758;DHT22;363;48.764;9.172;2023-03-15T07:20:46;5.30;99.90
758;DHT22;363;48.764;9.172;2023-03-15T07:23:12;5.40;99.90
758;DHT22;363;48.764;9.172;2023-03-15T07:25:38;6.30;99.90
758;DHT22;363;48.764;9.172;2023-03-15T07:28:03;7.10;98.10
758;DHT22;363;48.764;9.172;2023-03-15T07:30:29;7.90;96.30
758;DHT22;363;48.764;9.172;2023-03-15T07:32:55;9.50;94.20
758;DHT22;363;48.764;9.172;2023-03-15T07:35:21;9.60;91.40
758;DHT22;363;48.764;9.172;2023-03-15T07:37:46;10.50;90.10
758;DHT22;363;48.764;9.172;2023-03-15T07:40:12;10.50;85.70
758;DHT22;363;48.764;9.172;2023-03-15T07:42:39;12.10;82.80
758;DHT22;363;48.764;9.172;2023-03-15T07:45:05;12.10;78.40
758;DHT22;363;48.764;9.172;2023-03-15T07:47:31;12.40;77.60
758;DHT22;363;48.764;9.172;2023-03-15T07:49:57;12.90;76.50
758;DHT22;363;48.764;9.172;2023-03-15T07:52:23;12.70;75.40
758;DHT22;363;48.764;9.172;2023-03-15T07:54:49;12.90;74.20
758;DHT22;363;48.764;9.172;2023-03-15T07:57:15;12.90;73.90
758;DHT22;363;48.764;9.172;2023-03-15T07:59:40;12.90;73.50
758;DHT22;363;48.764;9.172;2023-03-15T08:02:08;13.60;71.80
758;DHT22;363;48.764;9.172;2023-03-15T08:04:34;13.10;72.40
758;DHT22;363;48.764;9.172;2023-03-15T08:06:59;13.00;72.30
758;DHT22;363;48.764;9.172;2023-03-15T08:09:25;12.60;73.40
758;DHT22;363;48.764;9.172;2023-03-15T08:11:51;13.00;71.10
758;DHT22;363;48.764;9.172;2023-03-15T08:14:17;12.00;72.30
758;DHT22;363;48.764;9.172;2023-03-15T08:16:42;11.70;73.70
758;DHT22;363;48.764;9.172;2023-03-15T08:19:08;11.70;74.90
758;DHT22;363;48.764;9.172;2023-03-15T08:21:33;11.50;76.60
758;DHT22;363;48.764;9.172;2023-03-15T08:23:59;11.80;77.40
758;DHT22;363;48.764;9.172;2023-03-15T08:26:25;11.30;76.10
758;DHT22;363;48.764;9.172;2023-03-15T08:28:51;11.50;75.80
758;DHT22;363;48.764;9.172;2023-03-15T08:31:16;11.30;77.50
758;DHT22;363;48.764;9.172;2023-03-15T08:33:42;11.10;77.50
758;DHT22;363;48.764;9.172;2023-03-15T08:36:08;10.90;77.00
758;DHT22;363;48.764;9.172;2023-03-15T08:38:34;10.50;78.30
758;DHT22;363;48.764;9.172;2023-03-15T08:41:01;10.50;79.00
758;DHT22;363;48.764;9.172;2023-03-15T08:43:28;10.40;80.60
758;DHT22;363;48.764;9.172;2023-03-15T08:45:53;10.60;81.70
758;DHT22;363;48.764;9.172;2023-03-15T08:48:19;11.20;78.90
758;DHT22;363;48.764;9.172;2023-03-15T08:50:45;11.60;79.90
758;DHT22;363;48.764;9.172;2023-03-15T08:53:10;12.30;75.70
758;DHT22;363;48.764;9.172;2023-03-15T08:55:36;12.30;74.70
758;DHT22;363;48.764;9.172;2023-03-15T08:58:03;12.00;73.60
758;DHT22;363;48.764;9.172;2023-03-15T09:00:30;12.20;71.00
758;DHT22;363;48.764;9.172;2023-03-15T09:02:56;11.20;70.60
758;DHT22;363;48.764;9.172;2023-03-15T09:05:23;11.50;70.50
758;DHT22;363;48.764;9.172;2023-03-15T09:07:50;11.40;71.60
758;DHT22;363;48.764;9.172;2023-03-15T09:10:17;11.10;73.20
758;DHT22;363;48.764;9.172;2023-03-15T09:12:46;10.70;74.80
758;DHT22;363;48.764;9.172;2023-03-15T09:15:12;11.10;75.50
758;DHT22;363;48.764;9.172;2023-03-15T09:17:41;10.80;74.50
758;DHT22;363;48.764;9.172;2023-03-15T09:20:10;10.50;72.30
758;DHT22;363;48.764;9.172;2023-03-15T09:22:40;10.80;73.70
758;DHT22;363;48.764;9.172;2023-03-15T09:25:06;10.40;75.40
758;DHT22;363;48.764;9.172;2023-03-15T09:27:32;10.10;74.90
758;DHT22;363;48.764;9.172;2023-03-15T09:29:58;10.20;78.10
758;DHT22;363;48.764;9.172;2023-03-15T09:32:24;9.90;79.20
758;DHT22;363;48.764;9.172;2023-03-15T09:34:50;9.70;78.30
758;DHT22;363;48.764;9.172;2023-03-15T09:37:16;9.80;78.40
758;DHT22;363;48.764;9.172;2023-03-15T09:39:42;9.80;78.30
758;DHT22;363;48.764;9.172;2023-03-15T09:50:26;9.40;79.80
758;DHT22;363;48.764;9.172;2023-03-15T09:52:58;9.00;80.80
758;DHT22;363;48.764;9.172;2023-03-15T09:55:26;9.00;80.80
758;DHT22;363;48.764;9.172;2023-03-15T09:58:01;9.40;81.30
758;DHT22;363;48.764;9.172;2023-03-15T10:03:05;8.60;82.00
758;DHT22;363;48.764;9.172;2023-03-15T10:05:42;8.90;83.80
758;DHT22;363;48.764;9.172;2023-03-15T10:08:11;8.40;82.50
758;DHT22;363;48.764;9.172;2023-03-15T10:10:43;8.50;80.60
758;DHT22;363;48.764;9.172;2023-03-15T10:21:40;9.30;78.00
758;DHT22;363;48.764;9.172;2023-03-15T10:24:17;9.70;77.50
758;DHT22;363;48.764;9.172;2023-03-15T10:26:43;10.40;73.80
758;DHT22;363;48.764;9.172;2023-03-15T10:29:14;10.90;72.80
758;DHT22;363;48.764;9.172;2023-03-15T10:31:43;10.70;72.50
758;DHT22;363;48.764;9.172;2023-03-15T10:34:11;11.00;73.70
758;DHT22;363;48.764;9.172;2023-03-15T10:36:37;10.80;72.80
758;DHT22;363;48.764;9.172;2023-03-15T10:39:09;10.20;72.10
758;DHT22;363;48.764;9.172;2023-03-15T10:41:47;10.50;72.40
758;DHT22;363;48.764;9.172;2023-03-15T10:44:24;10.50;71.40
758;DHT22;363;48.764;9.172;2023-03-15T10:47:12;10.50;72.10
758;DHT22;363;48.764;9.172;2023-03-15T10:49:39;11.30;72.70
758;DHT22;363;48.764;9.172;2023-03-15T10:52:06;11.40;69.30
758;DHT22;363;48.764;9.172;2023-03-15T10:54:50;11.30;69.30
758;DHT22;363;48.764;9.172;2023-03-15T10:57:18;11.20;70.00
758;DHT22;363;48.764;9.172;2023-03-15T10:59:57;11.50;69.00
758;DHT22;363;48.764;9.172;2023-03-15T11:02:24;11.40;70.00
758;DHT22;363;48.764;9.172;2023-03-15T11:07:25;11.00;69.70
758;DHT22;363;48.764;9.172;2023-03-15T11:09:53;11.00;70.30
758;DHT22;363;48.764;9.172;2023-03-15T11:12:29;10.90;71.60
758;DHT22;363;48.764;9.172;2023-03-15T11:15:06;10.80;72.10
758;DHT22;363;48.764;9.172;2023-03-15T11:17:41;10.80;71.60
758;DHT22;363;48.764;9.172;2023-03-15T11:22:51;9.70;75.00
758;DHT22;363;48.764;9.172;2023-03-15T11:25:19;9.60;76.00
758;DHT22;363;48.764;9.172;2023-03-15T11:27:46;9.80;75.90
758;DHT22;363;48.764;9.172;2023-03-15T11:30:17;9.60;76.50
758;DHT22;363;48.764;9.172;2023-03-15T11:32:44;9.60;75.90
758;DHT22;363;48.764;9.172;2023-03-15T11:35:22;9.80;76.80
758;DHT22;363;48.764;9.172;2023-03-15T11:37:57;10.00;76.10
758;DHT22;363;48.764;9.172;2023-03-15T11:40:32;9.70;75.50
758;DHT22;363;48.764;9.172;2023-03-15T11:43:03;9.70;75.00
758;DHT22;363;48.764;9.172;2023-03-15T11:45:49;10.10;74.40
758;DHT22;363;48.764;9.172;2023-03-15T11:49:07;9.90;74.80
758;DHT22;363;48.764;9.172;2023-03-15T11:51:06;10.00;73.20
758;DHT22;363;48.764;9.172;2023-03-15T11:53:37;10.00;74.50
758;DHT22;363;48.764;9.172;2023-03-15T11:59:17;10.20;72.50
758;DHT22;363;48.764;9.172;2023-03-15T12:01:49;10.00;68.80
758;DHT22;363;48.764;9.172;2023-03-15T12:04:26;9.70;69.20
758;DHT22;363;48.764;9.172;2023-03-15T12:06:54;9.70;71.10
758;DHT22;363;48.764;9.172;2023-03-15T12:12:01;9.70;70.20
758;DHT22;363;48.764;9.172;2023-03-15T12:14:31;10.00;69.10
758;DHT22;363;48.764;9.172;2023-03-15T12:20:07;9.70;70.60
758;DHT22;363;48.764;9.172;2023-03-15T12:22:34;9.90;71.70
758;DHT22;363;48.764;9.172;2023-03-15T12:27:54;9.90;70.60
758;DHT22;363;48.764;9.172;2023-03-15T12:30:32;10.30;69.70
758;DHT22;363;48.764;9.172;2023-03-15T12:33:01;10.40;69.20
758;DHT22;363;48.764;9.172;2023-03-15T12:35:32;10.10;70.20
758;DHT22;363;48.764;9.172;2023-03-15T12:38:01;10.30;69.80
758;DHT22;363;48.764;9.172;2023-03-15T12:55:57;10.50;68.90
758;DHT22;363;48.764;9.172;2023-03-15T12:58:36;10.70;69.40
758;DHT22;363;48.764;9.172;2023-03-15T13:01:05;10.60;70.90
758;DHT22;363;48.764;9.172;2023-03-15T13:03:34;10.50;71.00
758;DHT22;363;48.764;9.172;2023-03-15T13:11:48;9.80;74.50
758;DHT22;363;48.764;9.172;2023-03-15T13:23:19;9.90;88.50
758;DHT22;363;48.764;9.172;2023-03-15T13:28:45;10.00;87.10
758;DHT22;363;48.764;9.172;2023-03-15T13:31:23;10.20;87.60
758;DHT22;363;48.764;9.172;2023-03-15T13:33:54;10.00;90.40
758;DHT22;363;48.764;9.172;2023-03-15T13:39:15;10.20;90.80
758;DHT22;363;48.764;9.172;2023-03-15T13:41:41;10.40;91.50
758;DHT22;363;48.764;9.172;2023-03-15T13:44:16;10.00;92.00
758;DHT22;363;48.764;9.172;2023-03-15T13:46:42;10.60;93.70
758;DHT22;363;48.764;9.172;2023-03-15T13:49:10;10.60;90.00
758;DHT22;363;48.764;9.172;2023-03-15T13:51:37;9.70;88.50
758;DHT22;363;48.764;9.172;2023-03-15T13:56:37;9.30;92.10
758;DHT22;363;48.764;9.172;2023-03-15T13:59:05;9.00;92.80
758;DHT22;363;48.764;9.172;2023-03-15T14:01:31;8.90;93.50
758;DHT22;363;48.764;9.172;2023-03-15T14:04:05;8.70;93.80
758;DHT22;363;48.764;9.172;2023-03-15T14:06:32;8.50;94.90
758;DHT22;363;48.764;9.172;2023-03-15T14:09:09;8.60;96.50
758;DHT22;363;48.764;9.172;2023-03-15T14:11:37;8.80;97.10
758;DHT22;363;48.764;9.172;2023-03-15T14:14:24;8.80;97.20
758;DHT22;363;48.764;9.172;2023-03-15T14:16:51;8.70;97.50
758;DHT22;363;48.764;9.172;2023-03-15T14:19:26;8.70;97.80
758;DHT22;363;48.764;9.172;2023-03-15T14:22:00;8.80;96.10
758;DHT22;363;48.764;9.172;2023-03-15T14:24:36;8.90;95.20
758;DHT22;363;48.764;9.172;2023-03-15T14:27:14;9.00;95.70
758;DHT22;363;48.764;9.172;2023-03-15T14:30:00;8.60;95.40
758;DHT22;363;48.764;9.172;2023-03-15T14:32:34;8.70;95.70
758;DHT22;363;48.764;9.172;2023-03-15T14:35:06;8.40;95.50
758;DHT22;363;48.764;9.172;2023-03-15T14:37:42;8.40;95.70
758;DHT22;363;48.764;9.172;2023-03-15T14:40:31;8.90;95.30
758;DHT22;363;48.764;9.172;2023-03-15T14:43:02;8.80;94.60
758;DHT22;363;48.764;9.172;2023-03-15T14:45:30;9.10;94.60
758;DHT22;363;48.764;9.172;2023-03-15T14:48:06;9.10;93.90
758;DHT22;363;48.764;9.172;2023-03-15T14:50:37;9.10;93.10
758;DHT22;363;48.764;9.172;2023-03-15T14:53:04;9.10;92.90
758;DHT22;363;48.764;9.172;2023-03-15T14:55:33;9.00;92.90
758;DHT22;363;48.764;9.172;2023-03-15T14:58:20;8.90;94.30
758;DHT22;363;48.764;9.172;2023-03-15T15:00:50;8.70;94.60
758;DHT22;363;48.764;9.172;2023-03-15T15:03:38;8.60;95.30
758;DHT22;363;48.764;9.172;2023-03-15T15:06:06;8.70;97.10
758;DHT22;363;48.764;9.172;2023-03-15T15:08:33;8.50;98.70
758;DHT22;363;48.764;9.172;2023-03-15T15:11:02;8.30;99.80
758;DHT22;363;48.764;9.172;2023-03-15T15:13:29;8.40;99.90
758;DHT22;363;48.764;9.172;2023-03-15T15:15:56;8.20;99.90
758;DHT22;363;48.764;9.172;2023-03-15T15:18:28;7.90;99.90
758;DHT22;363;48.764;9.172;2023-03-15T15:20:59;7.40;99.90
758;DHT22;363;48.764;9.172;2023-03-15T15:23:28;7.30;99.90
758;DHT22;363;48.764;9.172;2023-03-15T15:26:00;7.00;99.90
758;DHT22;363;48.764;9.172;2023-03-15T15:28:27;7.00;99.90
758;DHT22;363;48.764;9.172;2023-03-15T15:30:53;7.00;99.90
758;DHT22;363;48.764;9.172;2023-03-15T15:33:18;6.70;99.90
758;DHT22;363;48.764;9.172;2023-03-15T15:35:44;6.00;99.90
758;DHT22;363;48.764;9.172;2023-03-15T15:38:11;6.10;99.90
758;DHT22;363;48.764;9.172;2023-03-15T15:40:37;6.20;99.90
758;DHT22;363;48.764;9.172;2023-03-15T15:43:03;6.20;99.90
758;DHT22;363;48.764;9.172;2023-03-15T15:45:29;6.30;99.90
758;DHT22;363;48.764;9.172;2023-03-15T15:47:55;5.60;99.90
758;DHT22;363;48.764;9.172;2023-03-15T15:50:21;6.10;99.90
758;DHT22;363;48.764;9.172;2023-03-15T15:52:48;5.80;99.90
758;DHT22;363;48.764;9.172;2023-03-15T15:55:17;5.80;99.90
758;DHT22;363;48.764;9.172;2023-03-15T15:57:47;5.90;99.90
758;DHT22;363;48.764;9.172;2023-03-15T16:00:23;5.70;99.90
758;DHT22;363;48.764;9.172;2023-03-15T16:02:50;5.90;99.90
758;DHT22;363;48.764;9.172;2023-03-15T16:05:20;6.00;99.90
758;DHT22;363;48.764;9.172;2023-03-15T16:07:47;6.10;99.90
758;DHT22;363;48.764;9.172;2023-03-15T16:10:24;5.90;99.90
758;DHT22;363;48.764;9.172;2023-03-15T16:12:51;5.60;99.90
758;DHT22;363;48.764;9.172;2023-03-15T16:15:18;6.00;99.90
758;DHT22;363;48.764;9.172;2023-03-15T16:17:44;5.50;99.90
758;DHT22;363;48.764;9.172;2023-03-15T16:20:11;6.30;99.90
758;DHT22;363;48.764;9.172;2023-03-15T16:22:41;6.10;99.90
758;DHT22;363;48.764;9.172;2023-03-15T16:25:17;6.30;99.90
758;DHT22;363;48.764;9.172;2023-03-15T16:27:43;6.50;99.90
758;DHT22;363;48.764;9.172;2023-03-15T16:30:21;6.50;99.90
758;DHT22;363;48.764;9.172;2023-03-15T16:32:48;6.40;99.90
758;DHT22;363;48.764;9.172;2023-03-15T16:35:14;6.80;99.90
758;DHT22;363;48.764;9.172;2023-03-15T16:37:40;6.50;99.90
758;DHT22;363;48.764;9.172;2023-03-15T16:40:26;6.20;99.90
758;DHT22;363;48.764;9.172;2023-03-15T16:42:52;6.30;99.90
758;DHT22;363;48.764;9.172;2023-03-15T16:45:18;6.20;99.90
758;DHT22;363;48.764;9.172;2023-03-15T16:47:44;5.70;99.90
758;DHT22;363;48.764;9.172;2023-03-15T16:50:10;6.20;99.90
758;DHT22;363;48.764;9.172;2023-03-15T16:52:36;6.20;99.90
758;DHT22;363;48.764;9.172;2023-03-15T16:55:02;6.20;99.90
758;DHT22;363;48.764;9.172;2023-03-15T16:57:28;6.30;99.90
758;DHT22;363;48.764;9.172;2023-03-15T16:59:54;6.30;99.90
758;DHT22;363;48.764;9.172;2023-03-15T17:02:22;6.00;99.90
758;DHT22;363;48.764;9.172;2023-03-15T17:04:48;6.10;99.90
758;DHT22;363;48.764;9.172;2023-03-15T17:07:15;6.20;99.90
758;DHT22;363;48.764;9.172;2023-03-15T17:09:43;6.00;99.90
758;DHT22;363;48.764;9.172;2023-03-15T17:12:18;6.30;99.90
758;DHT22;363;48.764;9.172;2023-03-15T17:14:45;5.80;99.90
758;DHT22;363;48.764;9.172;2023-03-15T17:17:11;6.50;99.90
758;DHT22;363;48.764;9.172;2023-03-15T17:19:36;6.50;99.90
758;DHT22;363;48.764;9.172;2023-03-15T17:22:03;6.70;99.90
758;DHT22;363;48.764;9.172;2023-03-15T17:24:29;6.10;99.90
758;DHT22;363;48.764;9.172;2023-03-15T17:26:55;5.50;99.90
758;DHT22;363;48.764;9.172;2023-03-15T17:29:21;6.50;99.90
758;DHT22;363;48.764;9.172;2023-03-15T17:31:47;6.20;99.90
758;DHT22;363;48.764;9.172;2023-03-15T17:34:12;6.10;99.90
758;DHT22;363;48.764;9.172;2023-03-15T17:36:38;6.00;99.90
758;DHT22;363;48.764;9.172;2023-03-15T17:39:06;6.00;99.90
758;DHT22;363;48.764;9.172;2023-03-15T17:41:34;5.90;99.90
758;DHT22;363;48.764;9.172;2023-03-15T17:44:01;5.80;99.90
758;DHT22;363;48.764;9.172;2023-03-15T17:46:27;5.70;99.90
758;DHT22;363;48.764;9.172;2023-03-15T17:49:01;5.70;99.90
758;DHT22;363;48.764;9.172;2023-03-15T17:51:30;5.70;99.90
758;DHT22;363;48.764;9.172;2023-03-15T17:53:57;5.50;99.90
758;DHT22;363;48.764;9.172;2023-03-15T17:56:24;5.40;99.90
758;DHT22;363;48.764;9.172;2023-03-15T17:58:50;5.50;99.90
758;DHT22;363;48.764;9.172;2023-03-15T18:01:22;5.40;99.90
758;DHT22;363;48.764;9.172;2023-03-15T18:03:49;5.20;99.90
758;DHT22;363;48.764;9.172;2023-03-15T18:06:16;5.30;99.90
758;DHT22;363;48.764;9.172;2023-03-15T18:08:43;5.10;99.90
758;DHT22;363;48.764;9.172;2023-03-15T18:13:45;5.30;99.90
758;DHT22;363;48.764;9.172;2023-03-15T18:16:11;5.50;99.90
758;DHT22;363;48.764;9.172;2023-03-15T18:18:41;5.40;99.90
758;DHT22;363;48.764;9.172;2023-03-15T18:21:12;5.40;99.90
758;DHT22;363;48.764;9.172;2023-03-15T18:23:38;4.60;99.90
758;DHT22;363;48.764;9.172;2023-03-15T18:26:04;5.10;99.90